createdAt,value
2023-01-23T00:00:42.906Z,0.40
2023-01-23T00:03:16.726Z,0.40
2023-01-23T00:05:59.227Z,0.30
2023-01-23T00:08:37.028Z,0.60
2023-01-23T00:11:24.444Z,0.00
2023-01-23T00:14:00.422Z,0.40
2023-01-23T00:16:37.448Z,0.30
2023-01-23T00:19:15.451Z,0.30
2023-01-23T00:21:44.711Z,0.20
2023-01-23T00:24:22.465Z,0.20
2023-01-23T00:27:02.926Z,0.20
2023-01-23T00:29:42.556Z,0.10
2023-01-23T00:32:19.165Z,0.20
2023-01-23T00:34:50.423Z,0.10
2023-01-23T00:37:18.922Z,-0.60
2023-01-23T00:39:58.691Z,0.20
2023-01-23T00:42:26.911Z,0.10
2023-01-23T00:44:55.450Z,0.10
2023-01-23T00:47:30.461Z,0.10
2023-01-23T00:50:00.779Z,0.10
2023-01-23T00:52:35.548Z,0.10
2023-01-23T00:55:20.668Z,0.00
2023-01-23T00:57:55.332Z,0.00
2023-01-23T01:00:23.702Z,0.10
2023-01-23T01:02:59.463Z,0.00
2023-01-23T01:05:36.295Z,0.00
2023-01-23T01:08:07.205Z,0.00
2023-01-23T01:10:37.211Z,0.10
2023-01-23T01:13:05.740Z,0.10
2023-01-23T01:15:34.340Z,0.20
2023-01-23T01:18:04.163Z,0.20
2023-01-23T01:20:35.525Z,0.20
2023-01-23T01:23:04.217Z,0.20
2023-01-23T01:25:34.025Z,0.20
2023-01-23T01:28:04.999Z,0.20
2023-01-23T01:30:38.176Z,0.20
2023-01-23T01:33:11.130Z,0.20
2023-01-23T01:35:42.633Z,0.20
2023-01-23T01:38:11.407Z,0.10
2023-01-23T01:40:47.843Z,0.10
2023-01-23T01:43:27.325Z,0.00
2023-01-23T01:46:23.838Z,0.00
2023-01-23T01:49:09.550Z,-0.10
2023-01-23T01:51:57.233Z,-0.20
2023-01-23T01:54:33.593Z,-0.20
2023-01-23T01:57:16.773Z,-0.30
2023-01-23T01:59:52.998Z,-0.40
2023-01-23T02:02:28.726Z,-0.40
2023-01-23T02:05:14.550Z,-0.50
2023-01-23T02:07:48.351Z,-0.50
2023-01-23T02:10:23.049Z,-0.50
2023-01-23T02:13:21.109Z,-0.50
2023-01-23T02:15:51.681Z,-0.60
2023-01-23T02:18:20.823Z,-0.60
2023-01-23T02:20:54.296Z,-0.70
2023-01-23T02:23:43.655Z,-0.70
2023-01-23T02:26:17.443Z,-0.80
2023-01-23T02:28:53.513Z,-0.70
2023-01-23T02:31:29.719Z,-0.90
2023-01-23T02:34:13.156Z,-0.90
2023-01-23T02:36:50.594Z,-1.00
2023-01-23T02:39:21.296Z,-1.00
2023-01-23T02:41:58.300Z,-1.10
2023-01-23T02:44:31.698Z,-1.00
2023-01-23T02:47:04.468Z,-1.00
2023-01-23T02:49:42.905Z,-0.90
2023-01-23T02:52:11.330Z,-1.10
2023-01-23T02:54:40.919Z,-1.00
2023-01-23T02:57:10.884Z,-1.10
2023-01-23T02:59:56.384Z,-1.10
2023-01-23T03:02:24.802Z,-1.10
2023-01-23T03:04:53.188Z,-1.20
2023-01-23T03:07:21.378Z,-1.20
2023-01-23T03:09:50.135Z,-1.20
2023-01-23T03:12:20.065Z,-1.10
2023-01-23T03:14:48.809Z,-1.20
2023-01-23T03:17:17.188Z,-1.20
2023-01-23T03:19:46.543Z,-1.20
2023-01-23T03:22:14.923Z,-1.20
2023-01-23T03:24:45.284Z,-1.20
2023-01-23T03:27:13.667Z,-1.20
2023-01-23T03:30:01.276Z,-1.30
2023-01-23T03:32:31.680Z,-1.30
2023-01-23T03:35:01.739Z,-1.40
2023-01-23T03:37:30.948Z,-1.40
2023-01-23T03:40:24.261Z,-0.80
2023-01-23T03:42:52.448Z,-1.40
2023-01-23T03:45:23.893Z,-1.30
2023-01-23T03:47:52.454Z,-1.40
2023-01-23T03:50:21.115Z,-1.40
2023-01-23T03:52:55.687Z,-1.40
2023-01-23T03:55:26.452Z,-1.50
2023-01-23T03:58:11.129Z,-1.50
2023-01-23T04:00:53.536Z,-1.50
2023-01-23T04:03:21.892Z,-1.60
2023-01-23T04:05:50.259Z,-1.70
2023-01-23T04:08:37.863Z,-1.80
2023-01-23T04:11:08.468Z,-1.70
2023-01-23T04:13:36.792Z,-1.70
2023-01-23T04:16:08.202Z,-1.80
2023-01-23T04:18:40.603Z,-1.80
2023-01-23T04:21:14.868Z,-1.80
2023-01-23T04:23:43.344Z,-1.70
2023-01-23T04:26:14.247Z,-1.80
2023-01-23T04:28:42.617Z,-1.80
2023-01-23T04:31:14.599Z,-1.90
2023-01-23T04:33:43.049Z,-1.90
2023-01-23T04:36:13.936Z,-1.90
2023-01-23T04:38:42.148Z,-1.90
2023-01-23T04:41:23.310Z,-1.90
2023-01-23T04:43:51.777Z,-2.00
2023-01-23T04:46:21.913Z,-1.90
2023-01-23T04:48:50.407Z,-1.90
2023-01-23T04:51:33.783Z,-2.00
2023-01-23T04:54:03.197Z,-1.90
2023-01-23T04:56:37.633Z,-1.90
2023-01-23T04:59:18.126Z,-1.80
2023-01-23T05:01:52.591Z,-1.90
2023-01-23T05:04:21.141Z,-2.00
2023-01-23T05:06:49.679Z,-2.00
2023-01-23T05:09:18.036Z,-2.00
2023-01-23T05:11:46.737Z,-2.00
2023-01-23T05:14:17.876Z,-1.70
2023-01-23T05:16:48.387Z,-2.00
2023-01-23T05:19:18.140Z,-2.00
2023-01-23T05:21:46.684Z,-1.90
2023-01-23T05:24:15.246Z,-2.00
2023-01-23T05:26:44.179Z,-2.00
2023-01-23T05:29:12.833Z,-2.00
2023-01-23T05:31:41.281Z,-2.00
2023-01-23T05:34:09.694Z,-1.50
2023-01-23T05:36:39.302Z,-1.90
2023-01-23T05:39:07.774Z,-1.70
2023-01-23T05:41:36.076Z,-1.80
2023-01-23T05:44:04.438Z,-1.60
2023-01-23T05:46:40.690Z,-1.60
2023-01-23T05:49:34.436Z,-1.50
2023-01-23T05:52:04.296Z,-1.60
2023-01-23T05:54:32.617Z,-1.50
2023-01-23T05:57:00.737Z,-1.50
2023-01-23T05:59:28.809Z,-1.40
2023-01-23T06:01:57.274Z,-1.20
2023-01-23T06:04:26.245Z,-1.40
2023-01-23T06:06:54.787Z,-1.30
2023-01-23T06:09:24.511Z,-1.30
2023-01-23T06:11:52.851Z,-1.30
2023-01-23T06:14:21.831Z,-1.30
2023-01-23T06:16:50.416Z,-1.30
2023-01-23T06:19:18.960Z,-1.30
2023-01-23T06:21:59.640Z,-1.30
2023-01-23T06:24:29.227Z,-1.40
2023-01-23T06:26:57.578Z,-1.30
2023-01-23T06:29:44.599Z,-1.20
2023-01-23T06:32:12.873Z,-1.30
2023-01-23T06:34:41.482Z,-1.40
2023-01-23T06:37:09.865Z,-1.30
2023-01-23T06:39:39.412Z,-1.30
2023-01-23T06:42:10.337Z,-1.30
2023-01-23T06:44:39.079Z,-1.30
2023-01-23T06:47:07.482Z,-1.30
2023-01-23T06:49:40.775Z,-1.30
2023-01-23T06:52:09.139Z,-1.30
2023-01-23T06:54:38.881Z,-1.40
2023-01-23T06:57:06.996Z,-1.20
2023-01-23T06:59:35.713Z,-1.20
2023-01-23T07:02:05.225Z,-1.10
2023-01-23T07:04:34.338Z,-1.10
2023-01-23T07:07:06.708Z,-1.00
2023-01-23T07:09:34.927Z,-1.00
2023-01-23T07:12:04.755Z,-1.00
2023-01-23T07:14:33.186Z,-0.90
2023-01-23T07:17:01.630Z,-0.90
2023-01-23T07:19:29.882Z,-0.90
2023-01-23T07:21:58.226Z,-0.90
2023-01-23T07:24:31.803Z,-0.90
2023-01-23T07:27:01.156Z,-0.80
2023-01-23T07:29:46.860Z,-0.80
2023-01-23T07:32:15.128Z,-0.70
2023-01-23T07:34:44.526Z,-0.70
2023-01-23T07:37:13.016Z,-0.60
2023-01-23T07:39:41.287Z,-0.60
2023-01-23T07:42:09.848Z,-0.70
2023-01-23T07:44:38.222Z,-0.60
2023-01-23T07:47:08.191Z,-0.60
2023-01-23T07:49:36.590Z,-0.60
2023-01-23T07:52:05.742Z,-0.60
2023-01-23T07:54:34.296Z,-0.60
2023-01-23T07:57:02.694Z,-0.50
2023-01-23T07:59:31.036Z,-0.50
2023-01-23T08:01:59.297Z,-0.50
2023-01-23T08:04:29.200Z,-0.50
2023-01-23T08:06:57.427Z,-0.40
2023-01-23T08:09:25.737Z,-0.40
2023-01-23T08:11:56.076Z,-0.40
2023-01-23T08:14:25.665Z,-0.30
2023-01-23T08:16:55.681Z,-0.30
2023-01-23T08:19:25.422Z,-0.30
2023-01-23T08:21:55.495Z,0.30
2023-01-23T08:24:24.004Z,-0.30
2023-01-23T08:27:01.614Z,-0.30
2023-01-23T08:29:30.131Z,-0.20
2023-01-23T08:31:58.768Z,-0.10
2023-01-23T08:34:27.422Z,0.00
2023-01-23T08:36:57.738Z,0.10
2023-01-23T08:39:26.476Z,0.00
2023-01-23T08:41:54.781Z,0.00
2023-01-23T08:44:23.223Z,0.10
2023-01-23T08:46:51.658Z,0.30
2023-01-23T08:49:21.688Z,0.60
2023-01-23T08:51:50.153Z,0.10
2023-01-23T08:54:22.874Z,0.20
2023-01-23T08:56:53.493Z,0.20
2023-01-23T08:59:25.935Z,0.20
2023-01-23T09:02:31.623Z,0.20
2023-01-23T09:05:00.470Z,0.20
2023-01-23T09:07:28.890Z,0.20
2023-01-23T09:10:03.891Z,0.20
2023-01-23T09:12:38.127Z,0.20
2023-01-23T09:15:07.829Z,0.20
2023-01-23T09:17:38.112Z,0.00
2023-01-23T09:20:26.912Z,1.00
2023-01-23T09:22:56.588Z,0.10
2023-01-23T09:25:26.621Z,0.20
2023-01-23T09:27:55.026Z,0.20
2023-01-23T09:30:23.685Z,0.20
2023-01-23T09:32:55.785Z,0.30
2023-01-23T09:35:24.643Z,0.10
2023-01-23T09:38:01.760Z,0.20
2023-01-23T09:40:33.511Z,0.20
2023-01-23T09:43:06.476Z,0.10
2023-01-23T09:45:38.188Z,0.20
2023-01-23T09:48:20.785Z,0.20
2023-01-23T09:50:57.867Z,0.30
2023-01-23T09:53:31.255Z,0.30
2023-01-23T09:56:04.865Z,0.40
2023-01-23T09:58:40.691Z,0.30
2023-01-23T10:01:13.492Z,0.30
2023-01-23T10:03:43.541Z,0.30
2023-01-23T10:06:24.000Z,0.40
2023-01-23T10:09:14.506Z,0.40
2023-01-23T10:11:57.306Z,0.30
2023-01-23T10:14:48.098Z,0.40
2023-01-23T10:17:24.040Z,0.40
2023-01-23T10:20:25.393Z,0.40
2023-01-23T10:23:06.250Z,0.40
2023-01-23T10:25:43.435Z,0.50
2023-01-23T10:28:27.413Z,0.50
2023-01-23T10:31:00.863Z,0.60
2023-01-23T10:33:48.826Z,0.60
2023-01-23T10:36:47.670Z,0.50
2023-01-23T10:39:27.958Z,0.50
2023-01-23T10:42:02.396Z,0.50
2023-01-23T10:44:33.698Z,0.50
2023-01-23T10:47:05.856Z,0.60
2023-01-23T10:49:36.688Z,0.60
2023-01-23T10:52:07.022Z,0.60
2023-01-23T10:54:47.178Z,0.60
2023-01-23T10:57:24.710Z,0.60
2023-01-23T10:59:57.719Z,0.70
2023-01-23T11:02:30.277Z,0.70
2023-01-23T11:04:58.851Z,0.80
2023-01-23T11:07:29.198Z,0.80
2023-01-23T11:09:59.804Z,0.80
2023-01-23T11:12:29.375Z,0.80
2023-01-23T11:15:15.316Z,0.70
2023-01-23T11:17:45.137Z,0.70
2023-01-23T11:20:25.976Z,0.80
2023-01-23T11:23:06.056Z,1.20
2023-01-23T11:25:37.806Z,0.90
2023-01-23T11:28:29.855Z,0.70
2023-01-23T11:31:13.711Z,0.90
2023-01-23T11:33:53.429Z,1.10
2023-01-23T11:36:42.627Z,1.10
2023-01-23T11:39:19.988Z,1.00
2023-01-23T11:41:52.805Z,1.40
2023-01-23T11:44:24.547Z,1.10
2023-01-23T11:47:41.072Z,1.00
2023-01-23T11:50:30.367Z,1.00
2023-01-23T11:53:06.948Z,0.90
2023-01-23T11:55:53.283Z,1.40
2023-01-23T11:58:49.408Z,1.10
2023-01-23T12:01:31.943Z,1.10
2023-01-23T12:04:22.459Z,1.20
2023-01-23T12:07:16.849Z,1.10
2023-01-23T12:09:53.632Z,1.10
2023-01-23T12:12:33.746Z,1.10
2023-01-23T12:15:13.281Z,1.00
2023-01-23T12:17:49.728Z,1.00
2023-01-23T12:20:34.385Z,1.00
2023-01-23T12:23:37.644Z,1.10
2023-01-23T12:26:15.378Z,1.00
2023-01-23T12:29:01.658Z,1.00
2023-01-23T12:31:45.443Z,1.00
2023-01-23T12:34:27.290Z,1.10
2023-01-23T12:37:29.055Z,1.10
2023-01-23T12:40:09.914Z,1.10
2023-01-23T12:42:43.578Z,1.00
2023-01-23T12:45:22.028Z,1.10
2023-01-23T12:48:00.209Z,1.10
2023-01-23T12:50:40.664Z,1.10
2023-01-23T12:53:13.723Z,1.10
2023-01-23T12:55:52.080Z,1.10
2023-01-23T12:58:21.886Z,1.20
2023-01-23T13:01:21.624Z,1.20
2023-01-23T13:04:06.669Z,1.20
2023-01-23T13:06:51.818Z,1.20
2023-01-23T13:09:46.352Z,1.20
2023-01-23T13:12:23.403Z,1.30
2023-01-23T13:15:13.376Z,1.40
2023-01-23T13:17:46.335Z,1.30
2023-01-23T13:20:43.286Z,1.30
2023-01-23T13:23:37.972Z,1.30
2023-01-23T13:26:34.612Z,1.30
2023-01-23T13:29:04.510Z,1.40
2023-01-23T13:31:40.416Z,1.40
2023-01-23T13:34:44.438Z,1.40
2023-01-23T13:37:45.941Z,1.40
2023-01-23T13:40:20.503Z,1.40
2023-01-23T13:42:52.983Z,1.40
2023-01-23T13:45:32.534Z,1.40
2023-01-23T14:28:56.053Z,1.40
2023-01-23T14:31:28.851Z,1.40
2023-01-23T14:34:18.828Z,1.40
2023-01-23T14:36:52.968Z,1.50
2023-01-23T14:39:24.953Z,1.40
2023-01-23T14:42:06.534Z,1.40
2023-01-23T14:44:41.486Z,1.50
2023-01-23T14:47:17.755Z,1.50
2023-01-23T14:49:55.222Z,1.50
2023-01-23T14:52:29.015Z,1.60
2023-01-23T14:55:01.142Z,1.60
2023-01-23T14:57:37.419Z,1.60
2023-01-23T15:00:17.801Z,1.60
2023-01-23T15:02:51.086Z,1.60
2023-01-23T15:05:23.822Z,1.60
2023-01-23T15:07:56.037Z,1.70
2023-01-23T15:10:35.656Z,1.60
2023-01-23T15:13:21.041Z,1.70
2023-01-23T15:15:57.052Z,1.60
2023-01-23T15:19:10.506Z,1.60
2023-01-23T15:22:11.487Z,1.60
2023-01-23T15:25:08.342Z,1.70
2023-01-23T15:28:04.656Z,1.70
2023-01-23T15:34:25.442Z,1.80
2023-01-23T15:36:58.410Z,1.80
2023-01-23T15:39:32.682Z,2.10
2023-01-23T15:42:41.559Z,1.80
2023-01-23T15:46:11.647Z,1.80
2023-01-23T15:48:45.788Z,1.90
2023-01-23T15:51:21.639Z,2.40
2023-01-23T15:53:50.137Z,2.10
2023-01-23T15:56:29.040Z,2.00
2023-01-23T15:59:06.535Z,2.00
2023-01-23T16:01:35.663Z,2.00
2023-01-23T16:04:19.437Z,2.00
2023-01-23T16:06:51.571Z,2.10
2023-01-23T16:09:27.629Z,2.00
2023-01-23T16:12:04.605Z,2.00
2023-01-23T16:14:33.094Z,1.90
2023-01-23T16:17:11.675Z,1.90
2023-01-23T16:19:54.503Z,1.90
2023-01-23T16:22:29.567Z,1.90
2023-01-23T16:24:59.293Z,2.80
2023-01-23T16:27:28.535Z,2.10
2023-01-23T16:29:58.084Z,2.00
2023-01-23T16:32:26.462Z,1.90
2023-01-23T16:34:56.937Z,1.90
2023-01-23T16:37:26.774Z,1.90
2023-01-23T16:39:56.723Z,2.60
2023-01-23T16:42:26.609Z,1.90
2023-01-23T16:45:01.196Z,1.90
2023-01-23T16:47:33.669Z,1.90
2023-01-23T16:50:21.258Z,1.90
2023-01-23T16:52:56.301Z,2.00
2023-01-23T16:55:35.811Z,2.20
2023-01-23T16:58:06.878Z,2.00
2023-01-23T17:00:37.886Z,2.40
2023-01-23T17:03:10.097Z,2.00
2023-01-23T17:05:44.287Z,2.10
2023-01-23T17:08:31.349Z,2.00
2023-01-23T17:11:06.855Z,2.00
2023-01-23T17:13:38.232Z,2.00
2023-01-23T17:16:26.572Z,1.90
2023-01-23T17:19:00.827Z,1.90
2023-01-23T17:21:35.186Z,1.90
2023-01-23T17:24:08.260Z,1.90
2023-01-23T17:26:36.855Z,1.90
2023-01-23T17:29:11.565Z,1.80
2023-01-23T17:31:41.219Z,1.80
2023-01-23T17:34:22.325Z,1.80
2023-01-23T17:36:52.085Z,1.70
2023-01-23T17:39:21.724Z,1.70
2023-01-23T17:41:51.447Z,1.70
2023-01-23T17:44:22.051Z,1.80
2023-01-23T17:46:54.907Z,1.80
2023-01-23T17:49:29.992Z,1.80
2023-01-23T17:52:02.038Z,1.80
2023-01-23T17:54:40.251Z,1.80
2023-01-23T18:05:06.216Z,1.00
2023-01-23T18:07:53.677Z,1.90
2023-01-23T18:10:24.599Z,1.90
2023-01-23T18:13:03.878Z,2.00
2023-01-23T18:15:38.421Z,2.00
2023-01-23T18:18:19.239Z,2.00
2023-01-23T18:20:54.465Z,2.00
2023-01-23T18:23:24.066Z,2.00
2023-01-23T18:26:04.769Z,2.00
2023-01-23T18:28:42.224Z,2.10
2023-01-23T18:31:24.036Z,2.10
2023-01-23T18:34:05.118Z,2.20
2023-01-23T18:36:44.691Z,2.20
2023-01-23T18:40:00.580Z,2.30
2023-01-23T18:42:36.122Z,2.30
2023-01-23T18:45:08.103Z,2.30
2023-01-23T18:47:36.911Z,2.40
2023-01-23T18:50:09.832Z,2.30
2023-01-23T18:52:51.920Z,2.40
2023-01-23T18:55:28.180Z,2.40
2023-01-23T18:58:13.273Z,2.40
2023-01-23T19:00:48.780Z,2.50
2023-01-23T19:03:18.436Z,2.60
2023-01-23T19:05:47.276Z,2.50
2023-01-23T19:08:30.756Z,2.50
2023-01-23T19:11:09.628Z,2.50
2023-01-23T19:13:46.184Z,2.60
2023-01-23T19:16:18.558Z,2.70
2023-01-23T19:18:48.756Z,2.70
2023-01-23T19:21:23.595Z,2.60
2023-01-23T19:24:01.885Z,2.60
2023-01-23T19:26:32.120Z,2.60
2023-01-23T19:29:08.344Z,2.70
2023-01-23T19:31:47.521Z,2.70
2023-01-23T19:34:23.918Z,2.70
2023-01-23T19:36:52.511Z,2.80
2023-01-23T19:39:22.570Z,2.80
2023-01-23T19:41:53.581Z,2.80
2023-01-23T19:44:24.965Z,2.80
2023-01-23T19:46:54.179Z,2.70
2023-01-23T19:49:22.540Z,2.80
2023-01-23T19:51:51.943Z,2.70
2023-01-23T19:54:24.175Z,2.70
2023-01-23T19:56:52.704Z,2.70
2023-01-23T19:59:21.659Z,2.70
2023-01-23T20:01:53.504Z,2.70
2023-01-23T20:04:24.420Z,2.60
2023-01-23T20:06:56.036Z,2.70
2023-01-23T20:09:25.836Z,2.70
2023-01-23T20:11:54.030Z,2.70
2023-01-23T20:14:24.361Z,2.80
2023-01-23T20:16:53.127Z,2.70
2023-01-23T20:19:22.512Z,2.70
2023-01-23T20:21:51.234Z,2.60
2023-01-23T20:24:20.045Z,2.80
2023-01-23T20:26:50.498Z,2.60
2023-01-23T20:29:21.735Z,2.70
2023-01-23T20:31:55.039Z,3.30
2023-01-23T20:34:24.340Z,2.60
2023-01-23T20:36:52.779Z,2.60
2023-01-23T20:39:21.037Z,2.60
2023-01-23T20:41:51.308Z,2.60
2023-01-23T20:44:19.446Z,2.60
2023-01-23T20:46:47.447Z,2.70
2023-01-23T20:49:15.659Z,2.60
2023-01-23T20:51:43.750Z,2.70
2023-01-23T20:54:11.878Z,2.60
2023-01-23T20:56:40.130Z,2.60
2023-01-23T20:59:19.158Z,2.60
2023-01-23T21:02:05.028Z,2.60
2023-01-23T21:04:34.807Z,2.60
2023-01-23T21:07:03.477Z,2.60
2023-01-23T21:09:31.802Z,2.60
2023-01-23T21:12:00.495Z,2.60
2023-01-23T21:14:30.801Z,2.60
2023-01-23T21:16:59.199Z,2.60
2023-01-23T21:19:30.121Z,2.60
2023-01-23T21:21:58.482Z,2.60
2023-01-23T21:24:27.328Z,2.60
2023-01-23T21:26:55.524Z,2.60
2023-01-23T21:29:23.587Z,2.60
2023-01-23T21:31:53.093Z,2.60
2023-01-23T21:34:21.193Z,2.60
2023-01-23T21:36:49.352Z,2.50
2023-01-23T21:39:18.153Z,2.50
2023-01-23T21:41:46.253Z,2.50
2023-01-23T21:44:14.648Z,2.50
2023-01-23T21:46:42.907Z,2.60
2023-01-23T21:49:12.557Z,2.50
2023-01-23T21:51:40.734Z,2.50
2023-01-23T21:54:08.761Z,2.50
2023-01-23T21:56:36.859Z,2.50
2023-01-23T21:59:05.025Z,2.50
2023-01-23T22:01:39.882Z,2.50
2023-01-23T22:04:10.193Z,2.50
2023-01-23T22:06:42.024Z,2.50
2023-01-23T22:09:11.631Z,2.50
2023-01-23T22:11:40.065Z,2.50
2023-01-23T22:14:08.233Z,2.50
2023-01-23T22:16:48.029Z,2.50
2023-01-23T22:19:19.041Z,2.50
2023-01-23T22:21:50.085Z,2.50
2023-01-23T22:24:18.588Z,2.50
2023-01-23T22:26:46.674Z,2.50
2023-01-23T22:29:14.883Z,2.50
2023-01-23T22:31:43.743Z,2.50
2023-01-23T22:34:12.331Z,2.50
2023-01-23T22:36:43.110Z,2.60
2023-01-23T22:39:16.192Z,2.50
2023-01-23T22:41:45.508Z,2.50
2023-01-23T22:44:14.413Z,2.50
2023-01-23T22:46:42.875Z,2.50
2023-01-23T22:49:11.397Z,2.50
2023-01-23T22:51:39.414Z,2.50
2023-01-23T22:54:07.409Z,2.50
2023-01-23T22:56:36.984Z,2.50
2023-01-23T22:59:04.932Z,2.50
2023-01-23T23:01:33.438Z,2.70
2023-01-23T23:04:01.719Z,2.50
2023-01-23T23:06:29.844Z,2.50
2023-01-23T23:08:58.018Z,2.50
2023-01-23T23:11:28.380Z,2.50
2023-01-23T23:13:59.020Z,2.50
2023-01-23T23:16:28.665Z,2.50
2023-01-23T23:18:59.001Z,2.50
2023-01-23T23:21:36.057Z,2.50
2023-01-23T23:24:06.264Z,2.50
2023-01-23T23:26:34.522Z,2.50
2023-01-23T23:29:05.321Z,2.50
2023-01-23T23:31:33.519Z,2.50
2023-01-23T23:34:01.806Z,2.50
2023-01-23T23:36:29.801Z,2.60
2023-01-23T23:38:57.969Z,2.50
2023-01-23T23:41:31.648Z,2.50
2023-01-23T23:44:00.169Z,2.70
2023-01-23T23:46:29.651Z,2.60
2023-01-23T23:48:57.679Z,2.80
2023-01-23T23:51:26.644Z,3.50
2023-01-23T23:53:55.603Z,2.80
2023-01-23T23:56:25.815Z,2.80
2023-01-23T23:58:54.390Z,2.50
